Terminal Aerodrome Forecast
Issued by NWS

Home | Current Version | Previous Version | Text Only | Print | Product List | Glossary On
Versions: 1 2 3 4 5 6 7 8 9 10 11 12 13 14 15 16 17 18 19 20 21 22
000
FTUS44 KEWX 111000 AAC
TAFSSF
TAF AMD
KSSF 111045Z 1111/1206 10005KT P6SM BKN022 OVC100
     FM111500 18009KT P6SM SCT030 BKN070
     FM111800 18012G22KT P6SM SCT050 SCT150
     FM120300 18007KT P6SM SCT250=

USA.gov is the U.S. government's official web portal to all federal, state and local government web resources and services.